sensor_id;sensor_type;location;lat;lon;timestamp;temperature;humidity
55828;DHT22;41758;51.992;5.890;2023-01-24T00:00:48;8.20;61.80
55828;DHT22;41758;51.992;5.890;2023-01-24T00:03:14;8.20;60.70
55828;DHT22;41758;51.992;5.890;2023-01-24T00:05:47;8.20;61.40
55828;DHT22;41758;51.992;5.890;2023-01-24T00:08:15;8.20;61.60
55828;DHT22;41758;51.992;5.890;2023-01-24T00:10:41;8.20;61.50
55828;DHT22;41758;51.992;5.890;2023-01-24T00:13:11;8.20;61.60
55828;DHT22;41758;51.992;5.890;2023-01-24T00:15:37;8.20;61.10
55828;DHT22;41758;51.992;5.890;2023-01-24T00:18:02;8.20;61.40
55828;DHT22;41758;51.992;5.890;2023-01-24T00:20:28;8.30;60.70
55828;DHT22;41758;51.992;5.890;2023-01-24T00:22:54;8.20;61.00
55828;DHT22;41758;51.992;5.890;2023-01-24T00:25:20;8.20;61.10
55828;DHT22;41758;51.992;5.890;2023-01-24T00:27:46;8.20;61.40
55828;DHT22;41758;51.992;5.890;2023-01-24T00:30:11;8.20;61.20
55828;DHT22;41758;51.992;5.890;2023-01-24T00:32:38;8.20;61.00
55828;DHT22;41758;51.992;5.890;2023-01-24T00:35:04;8.20;61.10
55828;DHT22;41758;51.992;5.890;2023-01-24T00:37:30;8.20;60.70
55828;DHT22;41758;51.992;5.890;2023-01-24T00:39:56;8.10;60.90
55828;DHT22;41758;51.992;5.890;2023-01-24T00:42:22;8.10;61.70
55828;DHT22;41758;51.992;5.890;2023-01-24T00:44:47;8.10;61.40
55828;DHT22;41758;51.992;5.890;2023-01-24T00:47:13;8.10;60.70
55828;DHT22;41758;51.992;5.890;2023-01-24T00:49:39;8.10;60.80
55828;DHT22;41758;51.992;5.890;2023-01-24T00:52:05;8.10;60.80
55828;DHT22;41758;51.992;5.890;2023-01-24T00:54:31;8.10;60.40
55828;DHT22;41758;51.992;5.890;2023-01-24T00:56:56;8.10;60.20
55828;DHT22;41758;51.992;5.890;2023-01-24T00:59:22;8.10;61.00
55828;DHT22;41758;51.992;5.890;2023-01-24T01:01:48;8.10;61.10
55828;DHT22;41758;51.992;5.890;2023-01-24T01:04:13;8.10;60.40
55828;DHT22;41758;51.992;5.890;2023-01-24T01:06:40;8.10;61.40
55828;DHT22;41758;51.992;5.890;2023-01-24T01:09:06;8.10;60.80
55828;DHT22;41758;51.992;5.890;2023-01-24T01:11:31;8.10;60.40
55828;DHT22;41758;51.992;5.890;2023-01-24T01:13:58;8.00;60.70
55828;DHT22;41758;51.992;5.890;2023-01-24T01:16:24;8.00;60.60
55828;DHT22;41758;51.992;5.890;2023-01-24T01:18:53;8.00;61.60
55828;DHT22;41758;51.992;5.890;2023-01-24T01:21:21;8.10;60.70
55828;DHT22;41758;51.992;5.890;2023-01-24T01:23:47;8.10;61.50
55828;DHT22;41758;51.992;5.890;2023-01-24T01:26:18;8.10;61.20
55828;DHT22;41758;51.992;5.890;2023-01-24T01:28:44;8.10;61.20
55828;DHT22;41758;51.992;5.890;2023-01-24T01:31:13;8.10;61.00
55828;DHT22;41758;51.992;5.890;2023-01-24T01:33:39;8.10;60.80
55828;DHT22;41758;51.992;5.890;2023-01-24T01:36:05;8.10;60.70
55828;DHT22;41758;51.992;5.890;2023-01-24T01:38:31;8.00;60.50
55828;DHT22;41758;51.992;5.890;2023-01-24T01:40:58;8.10;60.80
55828;DHT22;41758;51.992;5.890;2023-01-24T01:43:28;8.10;60.50
55828;DHT22;41758;51.992;5.890;2023-01-24T01:46:19;8.10;61.50
55828;DHT22;41758;51.992;5.890;2023-01-24T01:48:55;8.00;61.10
55828;DHT22;41758;51.992;5.890;2023-01-24T01:51:43;8.00;61.20
55828;DHT22;41758;51.992;5.890;2023-01-24T01:54:15;8.00;61.30
55828;DHT22;41758;51.992;5.890;2023-01-24T01:56:55;8.00;61.50
55828;DHT22;41758;51.992;5.890;2023-01-24T01:59:27;8.00;61.60
55828;DHT22;41758;51.992;5.890;2023-01-24T02:01:55;8.10;61.90
55828;DHT22;41758;51.992;5.890;2023-01-24T02:04:26;8.00;61.80
55828;DHT22;41758;51.992;5.890;2023-01-24T02:09:37;8.00;61.40
55828;DHT22;41758;51.992;5.890;2023-01-24T02:12:11;8.00;61.40
55828;DHT22;41758;51.992;5.890;2023-01-24T02:14:38;8.00;61.50
55828;DHT22;41758;51.992;5.890;2023-01-24T02:17:23;8.00;61.50
55828;DHT22;41758;51.992;5.890;2023-01-24T02:28:04;8.00;61.90
55828;DHT22;41758;51.992;5.890;2023-01-24T02:30:30;8.00;61.80
55828;DHT22;41758;51.992;5.890;2023-01-24T02:33:11;7.90;61.40
55828;DHT22;41758;51.992;5.890;2023-01-24T02:35:37;7.90;61.30
55828;DHT22;41758;51.992;5.890;2023-01-24T02:38:05;7.90;61.10
55828;DHT22;41758;51.992;5.890;2023-01-24T02:40:32;7.90;61.00
55828;DHT22;41758;51.992;5.890;2023-01-24T02:43:02;7.90;61.20
55828;DHT22;41758;51.992;5.890;2023-01-24T02:45:30;7.90;61.20
55828;DHT22;41758;51.992;5.890;2023-01-24T02:47:57;7.90;61.30
55828;DHT22;41758;51.992;5.890;2023-01-24T02:50:28;7.80;61.00
55828;DHT22;41758;51.992;5.890;2023-01-24T02:52:54;7.80;61.20
55828;DHT22;41758;51.992;5.890;2023-01-24T02:55:39;7.80;61.60
55828;DHT22;41758;51.992;5.890;2023-01-24T02:58:26;7.80;62.40
55828;DHT22;41758;51.992;5.890;2023-01-24T03:00:52;7.80;62.30
55828;DHT22;41758;51.992;5.890;2023-01-24T03:03:19;7.80;61.90
55828;DHT22;41758;51.992;5.890;2023-01-24T03:05:45;7.90;62.20
55828;DHT22;41758;51.992;5.890;2023-01-24T03:08:35;7.90;62.00
55828;DHT22;41758;51.992;5.890;2023-01-24T03:11:05;7.90;61.40
55828;DHT22;41758;51.992;5.890;2023-01-24T03:13:32;7.80;61.10
55828;DHT22;41758;51.992;5.890;2023-01-24T03:16:17;7.80;61.10
55828;DHT22;41758;51.992;5.890;2023-01-24T03:19:01;7.80;61.20
55828;DHT22;41758;51.992;5.890;2023-01-24T03:21:46;7.70;61.10
55828;DHT22;41758;51.992;5.890;2023-01-24T03:24:33;7.70;61.80
55828;DHT22;41758;51.992;5.890;2023-01-24T03:27:17;7.70;61.90
55828;DHT22;41758;51.992;5.890;2023-01-24T03:30:03;7.70;61.90
55828;DHT22;41758;51.992;5.890;2023-01-24T03:32:48;7.70;62.30
55828;DHT22;41758;51.992;5.890;2023-01-24T03:35:33;7.70;62.00
55828;DHT22;41758;51.992;5.890;2023-01-24T03:37:59;7.70;62.40
55828;DHT22;41758;51.992;5.890;2023-01-24T03:41:01;7.70;62.00
55828;DHT22;41758;51.992;5.890;2023-01-24T03:43:27;7.70;61.70
55828;DHT22;41758;51.992;5.890;2023-01-24T03:45:53;7.70;61.80
55828;DHT22;41758;51.992;5.890;2023-01-24T03:48:32;7.70;62.00
55828;DHT22;41758;51.992;5.890;2023-01-24T03:51:04;7.70;62.50
55828;DHT22;41758;51.992;5.890;2023-01-24T03:53:48;7.70;62.00
55828;DHT22;41758;51.992;5.890;2023-01-24T03:56:15;7.70;61.70
55828;DHT22;41758;51.992;5.890;2023-01-24T03:58:45;7.70;61.60
55828;DHT22;41758;51.992;5.890;2023-01-24T04:01:14;7.60;61.40
55828;DHT22;41758;51.992;5.890;2023-01-24T04:04:00;7.60;62.10
55828;DHT22;41758;51.992;5.890;2023-01-24T04:06:27;7.60;62.20
55828;DHT22;41758;51.992;5.890;2023-01-24T04:08:53;7.60;62.10
55828;DHT22;41758;51.992;5.890;2023-01-24T04:11:20;7.70;62.60
55828;DHT22;41758;51.992;5.890;2023-01-24T04:13:51;7.70;62.80
55828;DHT22;41758;51.992;5.890;2023-01-24T04:16:16;7.70;63.40
55828;DHT22;41758;51.992;5.890;2023-01-24T04:19:00;7.70;63.50
55828;DHT22;41758;51.992;5.890;2023-01-24T04:21:27;7.70;62.10
55828;DHT22;41758;51.992;5.890;2023-01-24T04:23:53;7.70;62.20
55828;DHT22;41758;51.992;5.890;2023-01-24T04:26:19;7.70;62.90
55828;DHT22;41758;51.992;5.890;2023-01-24T04:28:47;7.70;62.40
55828;DHT22;41758;51.992;5.890;2023-01-24T04:31:12;7.80;62.00
55828;DHT22;41758;51.992;5.890;2023-01-24T04:34:01;7.70;62.80
55828;DHT22;41758;51.992;5.890;2023-01-24T04:36:29;7.70;62.50
55828;DHT22;41758;51.992;5.890;2023-01-24T04:38:55;7.70;62.20
55828;DHT22;41758;51.992;5.890;2023-01-24T04:41:31;7.70;62.20
55828;DHT22;41758;51.992;5.890;2023-01-24T04:43:58;7.70;61.80
55828;DHT22;41758;51.992;5.890;2023-01-24T04:46:24;7.60;62.90
55828;DHT22;41758;51.992;5.890;2023-01-24T04:48:53;7.70;62.80
55828;DHT22;41758;51.992;5.890;2023-01-24T04:51:20;7.70;62.40
55828;DHT22;41758;51.992;5.890;2023-01-24T04:53:46;7.70;62.30
55828;DHT22;41758;51.992;5.890;2023-01-24T04:56:15;7.70;62.00
55828;DHT22;41758;51.992;5.890;2023-01-24T04:58:41;7.60;61.90
55828;DHT22;41758;51.992;5.890;2023-01-24T05:01:06;7.60;61.80
55828;DHT22;41758;51.992;5.890;2023-01-24T05:03:39;7.60;61.80
55828;DHT22;41758;51.992;5.890;2023-01-24T05:06:05;7.60;62.00
55828;DHT22;41758;51.992;5.890;2023-01-24T05:08:31;7.50;61.90
55828;DHT22;41758;51.992;5.890;2023-01-24T05:11:02;7.50;61.80
55828;DHT22;41758;51.992;5.890;2023-01-24T05:13:31;7.40;61.90
55828;DHT22;41758;51.992;5.890;2023-01-24T05:15:57;7.40;61.90
55828;DHT22;41758;51.992;5.890;2023-01-24T05:18:22;7.40;62.00
55828;DHT22;41758;51.992;5.890;2023-01-24T05:20:48;7.40;61.80
55828;DHT22;41758;51.992;5.890;2023-01-24T05:23:15;7.40;62.90
55828;DHT22;41758;51.992;5.890;2023-01-24T05:25:44;7.40;63.40
55828;DHT22;41758;51.992;5.890;2023-01-24T05:28:10;7.50;63.30
55828;DHT22;41758;51.992;5.890;2023-01-24T05:30:40;7.50;63.50
55828;DHT22;41758;51.992;5.890;2023-01-24T05:33:18;7.50;63.60
55828;DHT22;41758;51.992;5.890;2023-01-24T05:35:44;7.50;63.00
55828;DHT22;41758;51.992;5.890;2023-01-24T05:38:11;7.50;62.70
55828;DHT22;41758;51.992;5.890;2023-01-24T05:40:38;7.50;62.80
55828;DHT22;41758;51.992;5.890;2023-01-24T05:43:05;7.50;63.30
55828;DHT22;41758;51.992;5.890;2023-01-24T05:45:31;7.60;62.80
55828;DHT22;41758;51.992;5.890;2023-01-24T05:47:58;7.50;62.80
55828;DHT22;41758;51.992;5.890;2023-01-24T05:50:24;7.50;62.30
55828;DHT22;41758;51.992;5.890;2023-01-24T05:53:09;7.50;62.20
55828;DHT22;41758;51.992;5.890;2023-01-24T05:55:34;7.50;63.10
55828;DHT22;41758;51.992;5.890;2023-01-24T05:58:00;7.50;63.40
55828;DHT22;41758;51.992;5.890;2023-01-24T06:00:36;7.50;63.40
55828;DHT22;41758;51.992;5.890;2023-01-24T06:03:39;7.50;63.50
55828;DHT22;41758;51.992;5.890;2023-01-24T06:06:07;7.50;63.80
55828;DHT22;41758;51.992;5.890;2023-01-24T06:08:34;7.50;63.30
55828;DHT22;41758;51.992;5.890;2023-01-24T06:11:14;7.50;63.30
55828;DHT22;41758;51.992;5.890;2023-01-24T06:13:40;7.60;63.10
55828;DHT22;41758;51.992;5.890;2023-01-24T06:16:11;7.60;63.30
55828;DHT22;41758;51.992;5.890;2023-01-24T06:18:38;7.60;63.60
55828;DHT22;41758;51.992;5.890;2023-01-24T06:21:10;7.60;62.60
55828;DHT22;41758;51.992;5.890;2023-01-24T06:23:39;7.60;62.60
55828;DHT22;41758;51.992;5.890;2023-01-24T06:26:09;7.50;62.20
55828;DHT22;41758;51.992;5.890;2023-01-24T06:28:36;7.50;62.50
55828;DHT22;41758;51.992;5.890;2023-01-24T06:31:38;7.50;63.10
55828;DHT22;41758;51.992;5.890;2023-01-24T06:37:35;7.50;63.40
55828;DHT22;41758;51.992;5.890;2023-01-24T06:40:10;7.40;62.90
55828;DHT22;41758;51.992;5.890;2023-01-24T06:42:37;7.40;62.40
55828;DHT22;41758;51.992;5.890;2023-01-24T06:45:08;7.50;63.30
55828;DHT22;41758;51.992;5.890;2023-01-24T06:47:42;7.50;62.80
55828;DHT22;41758;51.992;5.890;2023-01-24T06:50:17;7.50;62.80
55828;DHT22;41758;51.992;5.890;2023-01-24T06:52:56;7.50;63.00
55828;DHT22;41758;51.992;5.890;2023-01-24T06:56:25;7.50;63.30
55828;DHT22;41758;51.992;5.890;2023-01-24T06:58:53;7.50;63.10
55828;DHT22;41758;51.992;5.890;2023-01-24T07:01:19;7.50;63.30
55828;DHT22;41758;51.992;5.890;2023-01-24T07:03:45;7.50;62.80
55828;DHT22;41758;51.992;5.890;2023-01-24T07:06:11;7.50;62.50
55828;DHT22;41758;51.992;5.890;2023-01-24T07:08:37;7.40;61.80
55828;DHT22;41758;51.992;5.890;2023-01-24T07:11:03;7.40;61.80
55828;DHT22;41758;51.992;5.890;2023-01-24T07:13:28;7.40;61.90
55828;DHT22;41758;51.992;5.890;2023-01-24T07:15:54;7.40;61.80
55828;DHT22;41758;51.992;5.890;2023-01-24T07:18:20;7.30;62.10
55828;DHT22;41758;51.992;5.890;2023-01-24T07:20:46;7.30;62.10
55828;DHT22;41758;51.992;5.890;2023-01-24T07:23:25;7.30;62.10
55828;DHT22;41758;51.992;5.890;2023-01-24T07:25:57;7.30;62.10
55828;DHT22;41758;51.992;5.890;2023-01-24T07:36:49;7.30;62.60
55828;DHT22;41758;51.992;5.890;2023-01-24T07:47:31;7.30;63.40
55828;DHT22;41758;51.992;5.890;2023-01-24T07:51:04;7.30;63.20
55828;DHT22;41758;51.992;5.890;2023-01-24T08:01:21;7.20;63.40
55828;DHT22;41758;51.992;5.890;2023-01-24T08:06:54;7.20;62.50
55828;DHT22;41758;51.992;5.890;2023-01-24T08:09:38;7.20;62.80
55828;DHT22;41758;51.992;5.890;2023-01-24T08:12:04;7.20;62.50
55828;DHT22;41758;51.992;5.890;2023-01-24T08:14:30;7.20;62.40
55828;DHT22;41758;51.992;5.890;2023-01-24T08:16:55;7.20;62.50
55828;DHT22;41758;51.992;5.890;2023-01-24T08:19:21;7.20;62.40
55828;DHT22;41758;51.992;5.890;2023-01-24T09:17:54;7.30;63.50
55828;DHT22;41758;51.992;5.890;2023-01-24T09:40:33;7.30;63.00
55828;DHT22;41758;51.992;5.890;2023-01-24T09:51:50;7.30;61.90
55828;DHT22;41758;51.992;5.890;2023-01-24T09:55:16;7.30;62.10
55828;DHT22;41758;51.992;5.890;2023-01-24T10:33:05;7.30;61.80
55828;DHT22;41758;51.992;5.890;2023-01-24T10:35:43;7.20;61.70
55828;DHT22;41758;51.992;5.890;2023-01-24T10:38:24;7.20;62.40
55828;DHT22;41758;51.992;5.890;2023-01-24T10:41:21;7.30;62.00
55828;DHT22;41758;51.992;5.890;2023-01-24T10:48:36;7.40;61.70
55828;DHT22;41758;51.992;5.890;2023-01-24T10:51:14;7.40;61.50
55828;DHT22;41758;51.992;5.890;2023-01-24T10:53:48;7.40;61.60
55828;DHT22;41758;51.992;5.890;2023-01-24T10:59:52;7.50;62.40
55828;DHT22;41758;51.992;5.890;2023-01-24T11:07:01;7.60;61.70
55828;DHT22;41758;51.992;5.890;2023-01-24T11:10:27;7.60;61.30
55828;DHT22;41758;51.992;5.890;2023-01-24T11:18:20;7.60;62.20
55828;DHT22;41758;51.992;5.890;2023-01-24T11:21:04;7.60;61.80
55828;DHT22;41758;51.992;5.890;2023-01-24T11:23:30;7.60;62.20
55828;DHT22;41758;51.992;5.890;2023-01-24T11:25:56;7.70;62.00
55828;DHT22;41758;51.992;5.890;2023-01-24T11:28:30;7.70;61.60
55828;DHT22;41758;51.992;5.890;2023-01-24T11:31:03;7.70;62.40
55828;DHT22;41758;51.992;5.890;2023-01-24T11:33:51;7.80;61.90
55828;DHT22;41758;51.992;5.890;2023-01-24T11:39:37;7.80;61.30
55828;DHT22;41758;51.992;5.890;2023-01-24T11:48:06;7.80;61.50
55828;DHT22;41758;51.992;5.890;2023-01-24T11:56:45;7.80;60.30
55828;DHT22;41758;51.992;5.890;2023-01-24T12:08:42;7.80;60.40
55828;DHT22;41758;51.992;5.890;2023-01-24T12:11:42;7.70;59.80
55828;DHT22;41758;51.992;5.890;2023-01-24T12:26:02;7.70;60.50
55828;DHT22;41758;51.992;5.890;2023-01-24T12:28:34;7.70;60.00
55828;DHT22;41758;51.992;5.890;2023-01-24T12:31:03;7.70;59.80
55828;DHT22;41758;51.992;5.890;2023-01-24T12:33:50;7.80;61.50
55828;DHT22;41758;51.992;5.890;2023-01-24T12:39:02;7.80;60.00
55828;DHT22;41758;51.992;5.890;2023-01-24T12:41:37;7.80;59.60
55828;DHT22;41758;51.992;5.890;2023-01-24T12:58:10;7.70;59.30
55828;DHT22;41758;51.992;5.890;2023-01-24T13:01:07;7.70;59.50
55828;DHT22;41758;51.992;5.890;2023-01-24T13:07:11;7.60;59.50
55828;DHT22;41758;51.992;5.890;2023-01-24T13:10:13;7.60;59.60
55828;DHT22;41758;51.992;5.890;2023-01-24T13:12:42;7.60;60.20
55828;DHT22;41758;51.992;5.890;2023-01-24T13:15:32;7.60;59.90
55828;DHT22;41758;51.992;5.890;2023-01-24T13:29:01;7.60;60.10
55828;DHT22;41758;51.992;5.890;2023-01-24T13:34:17;7.60;60.20
55828;DHT22;41758;51.992;5.890;2023-01-24T13:36:48;7.70;61.60
55828;DHT22;41758;51.992;5.890;2023-01-24T13:39:43;7.80;61.00
55828;DHT22;41758;51.992;5.890;2023-01-24T13:42:34;7.80;61.10
55828;DHT22;41758;51.992;5.890;2023-01-24T13:47:49;7.80;61.10
55828;DHT22;41758;51.992;5.890;2023-01-24T13:50:19;7.80;61.20
55828;DHT22;41758;51.992;5.890;2023-01-24T13:52:47;7.80;61.20
55828;DHT22;41758;51.992;5.890;2023-01-24T14:00:51;7.90;61.30
55828;DHT22;41758;51.992;5.890;2023-01-24T14:03:23;7.90;60.90
55828;DHT22;41758;51.992;5.890;2023-01-24T14:05:56;7.90;60.20
55828;DHT22;41758;51.992;5.890;2023-01-24T14:21:45;7.60;60.30
55828;DHT22;41758;51.992;5.890;2023-01-24T14:27:29;7.70;61.40
55828;DHT22;41758;51.992;5.890;2023-01-24T14:30:20;7.70;61.40
55828;DHT22;41758;51.992;5.890;2023-01-24T14:32:50;7.70;61.00
55828;DHT22;41758;51.992;5.890;2023-01-24T14:37:44;7.80;60.90
55828;DHT22;41758;51.992;5.890;2023-01-24T14:40:26;7.70;60.00
55828;DHT22;41758;51.992;5.890;2023-01-24T14:43:04;7.70;59.80
55828;DHT22;41758;51.992;5.890;2023-01-24T14:45:36;7.60;59.70
55828;DHT22;41758;51.992;5.890;2023-01-24T14:48:07;7.50;59.70
55828;DHT22;41758;51.992;5.890;2023-01-24T14:50:36;7.50;59.90
55828;DHT22;41758;51.992;5.890;2023-01-24T14:53:24;7.40;59.80
55828;DHT22;41758;51.992;5.890;2023-01-24T14:55:56;7.50;60.10
55828;DHT22;41758;51.992;5.890;2023-01-24T14:58:26;7.40;59.90
55828;DHT22;41758;51.992;5.890;2023-01-24T15:00:58;7.40;59.90
55828;DHT22;41758;51.992;5.890;2023-01-24T15:03:30;7.30;61.40
55828;DHT22;41758;51.992;5.890;2023-01-24T15:06:01;7.30;61.20
55828;DHT22;41758;51.992;5.890;2023-01-24T15:27:49;7.30;60.50
55828;DHT22;41758;51.992;5.890;2023-01-24T15:58:55;7.10;61.20
55828;DHT22;41758;51.992;5.890;2023-01-24T16:06:09;7.10;61.50
55828;DHT22;41758;51.992;5.890;2023-01-24T16:09:22;7.10;62.60
55828;DHT22;41758;51.992;5.890;2023-01-24T16:12:49;7.10;62.00
55828;DHT22;41758;51.992;5.890;2023-01-24T16:19:31;7.10;61.70
55828;DHT22;41758;51.992;5.890;2023-01-24T16:23:09;7.10;62.20
55828;DHT22;41758;51.992;5.890;2023-01-24T16:40:50;7.10;61.80
55828;DHT22;41758;51.992;5.890;2023-01-24T16:43:27;7.10;62.00
55828;DHT22;41758;51.992;5.890;2023-01-24T16:46:16;7.10;61.20
55828;DHT22;41758;51.992;5.890;2023-01-24T16:48:45;7.10;61.10
55828;DHT22;41758;51.992;5.890;2023-01-24T16:51:14;7.10;61.00
55828;DHT22;41758;51.992;5.890;2023-01-24T16:53:44;7.10;61.10
55828;DHT22;41758;51.992;5.890;2023-01-24T16:56:22;7.10;61.30
55828;DHT22;41758;51.992;5.890;2023-01-24T16:58:57;7.10;61.00
55828;DHT22;41758;51.992;5.890;2023-01-24T17:01:47;7.10;61.40
55828;DHT22;41758;51.992;5.890;2023-01-24T17:04:16;7.10;62.30
55828;DHT22;41758;51.992;5.890;2023-01-24T17:06:55;7.10;61.40
55828;DHT22;41758;51.992;5.890;2023-01-24T17:09:33;7.10;61.70
55828;DHT22;41758;51.992;5.890;2023-01-24T17:12:02;7.10;61.00
55828;DHT22;41758;51.992;5.890;2023-01-24T17:14:46;7.10;60.80
55828;DHT22;41758;51.992;5.890;2023-01-24T17:17:15;7.00;60.60
55828;DHT22;41758;51.992;5.890;2023-01-24T17:19:53;7.00;60.50
55828;DHT22;41758;51.992;5.890;2023-01-24T17:25:19;7.00;61.10
55828;DHT22;41758;51.992;5.890;2023-01-24T17:27:45;6.90;61.10
55828;DHT22;41758;51.992;5.890;2023-01-24T17:30:13;6.90;60.70
55828;DHT22;41758;51.992;5.890;2023-01-24T17:32:41;6.80;60.80
55828;DHT22;41758;51.992;5.890;2023-01-24T17:35:08;6.80;60.90
55828;DHT22;41758;51.992;5.890;2023-01-24T17:37:34;6.80;61.00
55828;DHT22;41758;51.992;5.890;2023-01-24T17:40:00;6.80;60.90
55828;DHT22;41758;51.992;5.890;2023-01-24T17:42:26;6.80;61.30
55828;DHT22;41758;51.992;5.890;2023-01-24T17:44:52;6.80;61.20
55828;DHT22;41758;51.992;5.890;2023-01-24T17:47:18;6.80;61.30
55828;DHT22;41758;51.992;5.890;2023-01-24T17:49:44;6.80;60.90
55828;DHT22;41758;51.992;5.890;2023-01-24T17:52:10;6.80;61.10
55828;DHT22;41758;51.992;5.890;2023-01-24T17:54:35;6.80;60.90
55828;DHT22;41758;51.992;5.890;2023-01-24T17:57:01;6.80;60.90
55828;DHT22;41758;51.992;5.890;2023-01-24T17:59:27;6.80;60.80
55828;DHT22;41758;51.992;5.890;2023-01-24T18:01:53;6.70;60.90
55828;DHT22;41758;51.992;5.890;2023-01-24T18:04:19;6.70;60.90
55828;DHT22;41758;51.992;5.890;2023-01-24T18:06:47;6.70;60.90
55828;DHT22;41758;51.992;5.890;2023-01-24T18:09:16;6.80;61.30
55828;DHT22;41758;51.992;5.890;2023-01-24T18:11:49;6.70;60.80
55828;DHT22;41758;51.992;5.890;2023-01-24T18:14:15;6.70;60.70
55828;DHT22;41758;51.992;5.890;2023-01-24T18:16:41;6.70;60.90
55828;DHT22;41758;51.992;5.890;2023-01-24T18:19:06;6.70;60.80
55828;DHT22;41758;51.992;5.890;2023-01-24T18:21:32;6.60;60.70
55828;DHT22;41758;51.992;5.890;2023-01-24T18:24:00;6.70;61.30
55828;DHT22;41758;51.992;5.890;2023-01-24T18:26:28;6.70;60.80
55828;DHT22;41758;51.992;5.890;2023-01-24T18:28:56;6.70;62.60
55828;DHT22;41758;51.992;5.890;2023-01-24T18:31:24;6.70;61.80
55828;DHT22;41758;51.992;5.890;2023-01-24T18:34:09;6.70;61.20
55828;DHT22;41758;51.992;5.890;2023-01-24T18:40:22;6.70;61.40
55828;DHT22;41758;51.992;5.890;2023-01-24T18:50:47;6.70;62.10
55828;DHT22;41758;51.992;5.890;2023-01-24T18:53:57;6.70;61.30
55828;DHT22;41758;51.992;5.890;2023-01-24T18:56:55;6.70;62.00
55828;DHT22;41758;51.992;5.890;2023-01-24T18:59:41;6.70;61.30
55828;DHT22;41758;51.992;5.890;2023-01-24T19:02:12;6.70;61.20
55828;DHT22;41758;51.992;5.890;2023-01-24T19:04:38;6.70;60.90
55828;DHT22;41758;51.992;5.890;2023-01-24T19:07:04;6.70;61.90
55828;DHT22;41758;51.992;5.890;2023-01-24T19:09:30;6.70;62.00
55828;DHT22;41758;51.992;5.890;2023-01-24T19:12:00;6.80;61.50
55828;DHT22;41758;51.992;5.890;2023-01-24T19:14:29;6.80;61.10
55828;DHT22;41758;51.992;5.890;2023-01-24T19:17:31;6.80;60.90
55828;DHT22;41758;51.992;5.890;2023-01-24T19:20:17;6.70;61.00
55828;DHT22;41758;51.992;5.890;2023-01-24T19:22:57;6.70;60.90
55828;DHT22;41758;51.992;5.890;2023-01-24T19:25:41;6.70;60.90
55828;DHT22;41758;51.992;5.890;2023-01-24T19:28:12;6.70;61.50
55828;DHT22;41758;51.992;5.890;2023-01-24T19:30:54;6.70;61.30
55828;DHT22;41758;51.992;5.890;2023-01-24T19:33:20;6.70;61.00
55828;DHT22;41758;51.992;5.890;2023-01-24T19:35:58;6.70;60.90
55828;DHT22;41758;51.992;5.890;2023-01-24T19:38:28;6.70;60.90
55828;DHT22;41758;51.992;5.890;2023-01-24T19:41:02;6.60;60.90
55828;DHT22;41758;51.992;5.890;2023-01-24T19:43:37;6.70;61.10
55828;DHT22;41758;51.992;5.890;2023-01-24T19:46:03;6.70;61.70
55828;DHT22;41758;51.992;5.890;2023-01-24T19:48:34;6.70;61.30
55828;DHT22;41758;51.992;5.890;2023-01-24T19:51:06;6.70;60.60
55828;DHT22;41758;51.992;5.890;2023-01-24T19:53:58;6.60;60.40
55828;DHT22;41758;51.992;5.890;2023-01-24T19:56:34;6.60;60.60
55828;DHT22;41758;51.992;5.890;2023-01-24T19:59:25;6.60;60.60
55828;DHT22;41758;51.992;5.890;2023-01-24T20:01:59;6.60;60.80
55828;DHT22;41758;51.992;5.890;2023-01-24T20:04:41;6.60;60.50
55828;DHT22;41758;51.992;5.890;2023-01-24T20:07:12;6.50;60.80
55828;DHT22;41758;51.992;5.890;2023-01-24T20:09:48;6.50;60.60
55828;DHT22;41758;51.992;5.890;2023-01-24T20:12:19;6.50;60.70
55828;DHT22;41758;51.992;5.890;2023-01-24T20:14:54;6.50;60.60
55828;DHT22;41758;51.992;5.890;2023-01-24T20:17:20;6.50;60.40
55828;DHT22;41758;51.992;5.890;2023-01-24T20:19:58;6.50;60.20
55828;DHT22;41758;51.992;5.890;2023-01-24T20:22:44;6.50;60.60
55828;DHT22;41758;51.992;5.890;2023-01-24T20:25:10;6.50;60.30
55828;DHT22;41758;51.992;5.890;2023-01-24T20:27:42;6.40;60.70
55828;DHT22;41758;51.992;5.890;2023-01-24T20:30:11;6.40;60.40
55828;DHT22;41758;51.992;5.890;2023-01-24T20:32:52;6.40;60.20
55828;DHT22;41758;51.992;5.890;2023-01-24T20:36:06;6.30;60.50
55828;DHT22;41758;51.992;5.890;2023-01-24T20:38:35;6.30;60.70
55828;DHT22;41758;51.992;5.890;2023-01-24T20:41:06;6.30;60.50
55828;DHT22;41758;51.992;5.890;2023-01-24T20:43:36;6.30;60.60
55828;DHT22;41758;51.992;5.890;2023-01-24T20:46:05;6.30;62.50
55828;DHT22;41758;51.992;5.890;2023-01-24T20:48:31;6.30;61.20
55828;DHT22;41758;51.992;5.890;2023-01-24T20:50:59;6.30;61.00
55828;DHT22;41758;51.992;5.890;2023-01-24T20:53:48;6.30;61.30
55828;DHT22;41758;51.992;5.890;2023-01-24T20:56:15;6.40;61.10
55828;DHT22;41758;51.992;5.890;2023-01-24T20:58:52;6.40;60.90
55828;DHT22;41758;51.992;5.890;2023-01-24T21:01:19;6.30;61.20
55828;DHT22;41758;51.992;5.890;2023-01-24T21:03:50;6.30;62.30
55828;DHT22;41758;51.992;5.890;2023-01-24T21:06:20;6.40;61.30
55828;DHT22;41758;51.992;5.890;2023-01-24T21:08:47;6.30;60.50
55828;DHT22;41758;51.992;5.890;2023-01-24T21:11:37;6.40;60.90
55828;DHT22;41758;51.992;5.890;2023-01-24T21:14:22;6.40;61.00
55828;DHT22;41758;51.992;5.890;2023-01-24T21:16:54;6.40;60.80
55828;DHT22;41758;51.992;5.890;2023-01-24T21:19:26;6.30;60.30
55828;DHT22;41758;51.992;5.890;2023-01-24T21:21:55;6.30;60.90
55828;DHT22;41758;51.992;5.890;2023-01-24T21:55:23;6.20;61.10
55828;DHT22;41758;51.992;5.890;2023-01-24T22:49:26;5.90;60.80
55828;DHT22;41758;51.992;5.890;2023-01-24T22:56:03;5.90;60.80
55828;DHT22;41758;51.992;5.890;2023-01-24T22:58:29;5.90;61.10
55828;DHT22;41758;51.992;5.890;2023-01-24T23:05:12;5.90;60.90
55828;DHT22;41758;51.992;5.890;2023-01-24T23:07:38;5.90;61.00
55828;DHT22;41758;51.992;5.890;2023-01-24T23:10:04;6.00;62.30
55828;DHT22;41758;51.992;5.890;2023-01-24T23:12:30;6.00;61.20
55828;DHT22;41758;51.992;5.890;2023-01-24T23:15:15;6.00;60.90
55828;DHT22;41758;51.992;5.890;2023-01-24T23:18:02;6.00;61.00
55828;DHT22;41758;51.992;5.890;2023-01-24T23:20:28;6.00;61.00
55828;DHT22;41758;51.992;5.890;2023-01-24T23:23:12;6.00;60.60
55828;DHT22;41758;51.992;5.890;2023-01-24T23:25:43;6.00;61.30
55828;DHT22;41758;51.992;5.890;2023-01-24T23:28:09;6.00;60.80
55828;DHT22;41758;51.992;5.890;2023-01-24T23:30:53;6.00;61.00
55828;DHT22;41758;51.992;5.890;2023-01-24T23:33:53;6.00;61.00
55828;DHT22;41758;51.992;5.890;2023-01-24T23:36:12;6.00;61.00
55828;DHT22;41758;51.992;5.890;2023-01-24T23:38:38;6.00;61.70
55828;DHT22;41758;51.992;5.890;2023-01-24T23:41:08;6.00;62.30
55828;DHT22;41758;51.992;5.890;2023-01-24T23:43:34;6.00;62.70
55828;DHT22;41758;51.992;5.890;2023-01-24T23:46:00;6.00;61.10
55828;DHT22;41758;51.992;5.890;2023-01-24T23:48:25;6.00;61.10
55828;DHT22;41758;51.992;5.890;2023-01-24T23:50:55;6.00;60.80
55828;DHT22;41758;51.992;5.890;2023-01-24T23:53:21;6.00;61.50
55828;DHT22;41758;51.992;5.890;2023-01-24T23:55:47;6.00;62.20
55828;DHT22;41758;51.992;5.890;2023-01-24T23:58:13;6.10;62.40
